createdAt,value
2022-09-15T00:02:13.381Z,66.60
2022-09-15T00:04:42.276Z,66.84
2022-09-15T00:07:12.206Z,66.86
2022-09-15T00:10:11.056Z,67.09
2022-09-15T00:12:40.336Z,66.96
2022-09-15T00:15:13.991Z,66.85
2022-09-15T00:17:44.111Z,67.17
2022-09-15T00:20:12.926Z,67.01
2022-09-15T00:22:42.468Z,67.18
2022-09-15T00:25:11.856Z,67.27
2022-09-15T00:27:41.789Z,67.12
2022-09-15T00:30:13.074Z,67.37
2022-09-15T00:32:42.734Z,67.44
2022-09-15T00:35:12.557Z,67.57
2022-09-15T00:37:41.342Z,67.65
2022-09-15T00:40:12.748Z,67.59
2022-09-15T00:42:41.527Z,67.57
2022-09-15T00:45:16.774Z,67.65
2022-09-15T00:47:45.645Z,67.79
2022-09-15T00:50:18.933Z,67.81
2022-09-15T00:52:59.420Z,67.95
2022-09-15T00:55:43.898Z,67.99
2022-09-15T00:58:21.230Z,68.04
2022-09-15T01:03:45.301Z,68.20
2022-09-15T01:06:24.258Z,68.04
2022-09-15T01:09:15.904Z,68.16
2022-09-15T01:11:47.502Z,68.24
2022-09-15T01:14:18.918Z,68.30
2022-09-15T01:20:39.836Z,68.46
2022-09-15T01:23:26.173Z,68.40
2022-09-15T01:26:30.553Z,68.42
2022-09-15T01:29:34.628Z,68.51
2022-09-15T01:32:35.182Z,68.51
2022-09-15T01:35:13.865Z,68.49
2022-09-15T01:37:55.943Z,68.45
2022-09-15T01:40:30.292Z,68.34
2022-09-15T01:43:02.561Z,68.66
2022-09-15T01:45:35.248Z,68.33
2022-09-15T01:48:06.913Z,68.48
2022-09-15T01:50:49.824Z,68.62
2022-09-15T01:53:22.635Z,68.56
2022-09-15T01:56:00.881Z,68.78
2022-09-15T01:58:31.330Z,68.73
2022-09-15T02:01:52.383Z,68.74
2022-09-15T02:04:46.823Z,68.62
2022-09-15T02:07:28.761Z,68.78
2022-09-15T02:10:23.735Z,68.73
2022-09-15T02:13:17.455Z,68.86
2022-09-15T02:15:57.332Z,69.00
2022-09-15T02:18:35.222Z,68.81
2022-09-15T02:21:31.964Z,69.06
2022-09-15T02:24:08.257Z,69.08
2022-09-15T02:26:41.526Z,69.03
2022-09-15T02:29:14.601Z,69.05
2022-09-15T02:31:46.278Z,69.08
2022-09-15T02:34:23.122Z,69.48
2022-09-15T02:36:55.751Z,69.32
2022-09-15T02:39:32.315Z,69.43
2022-09-15T02:42:02.891Z,69.42
2022-09-15T02:44:32.434Z,69.43
2022-09-15T02:47:07.011Z,69.36
2022-09-15T02:49:35.815Z,69.32
2022-09-15T02:52:05.847Z,69.39
2022-09-15T02:54:34.571Z,69.40
2022-09-15T02:57:03.413Z,69.48
2022-09-15T02:59:53.103Z,69.26
2022-09-15T03:02:23.084Z,69.23
2022-09-15T03:04:53.368Z,69.30
2022-09-15T03:07:25.435Z,69.62
2022-09-15T03:09:57.526Z,69.72
2022-09-15T03:12:27.203Z,69.70
2022-09-15T03:14:56.969Z,69.66
2022-09-15T03:17:27.946Z,69.60
2022-09-15T03:19:56.725Z,70.08
2022-09-15T03:22:25.510Z,69.57
2022-09-15T03:24:55.979Z,69.83
2022-09-15T03:27:26.253Z,69.94
2022-09-15T03:29:55.643Z,69.85
2022-09-15T03:32:24.734Z,69.94
2022-09-15T03:34:58.397Z,70.09
2022-09-15T03:37:29.295Z,70.25
2022-09-15T03:39:58.491Z,70.13
2022-09-15T03:42:29.695Z,70.32
2022-09-15T03:45:00.010Z,70.16
2022-09-15T03:47:29.331Z,70.23
2022-09-15T03:49:58.658Z,70.25
2022-09-15T03:52:32.306Z,70.36
2022-09-15T03:55:01.306Z,70.42
2022-09-15T03:57:31.599Z,70.42
2022-09-15T04:00:00.570Z,70.58
2022-09-15T04:02:30.180Z,70.42
2022-09-15T04:05:00.205Z,70.60
2022-09-15T04:07:30.538Z,70.60
2022-09-15T04:10:01.592Z,70.51
2022-09-15T04:12:32.633Z,70.46
2022-09-15T04:15:04.434Z,70.50
2022-09-15T04:17:34.652Z,70.50
2022-09-15T04:20:06.573Z,70.48
2022-09-15T04:22:39.304Z,70.56
2022-09-15T04:25:09.790Z,70.50
2022-09-15T04:27:39.024Z,70.44
2022-09-15T04:30:10.969Z,70.50
2022-09-15T04:32:40.198Z,70.56
2022-09-15T04:35:10.506Z,70.60
2022-09-15T04:37:39.538Z,70.74
2022-09-15T04:40:10.851Z,70.63
2022-09-15T04:42:41.670Z,70.69
2022-09-15T04:45:11.390Z,70.75
2022-09-15T04:47:41.119Z,70.84
2022-09-15T04:50:10.758Z,70.92
2022-09-15T04:52:39.757Z,70.89
2022-09-15T04:55:09.448Z,70.83
2022-09-15T04:57:38.277Z,71.00
2022-09-15T05:00:09.784Z,70.92
2022-09-15T05:02:38.605Z,70.79
2022-09-15T05:05:10.144Z,71.05
2022-09-15T05:08:30.005Z,71.21
2022-09-15T05:11:04.772Z,70.99
2022-09-15T05:13:35.370Z,71.02
2022-09-15T05:16:25.363Z,71.03
2022-09-15T05:18:58.616Z,71.12
2022-09-15T05:21:29.432Z,71.34
2022-09-15T05:23:58.635Z,71.33
2022-09-15T05:26:29.731Z,71.24
2022-09-15T05:28:59.676Z,71.54
2022-09-15T05:31:32.044Z,71.35
2022-09-15T05:34:03.392Z,71.49
2022-09-15T05:36:34.512Z,71.53
2022-09-15T05:39:03.526Z,71.58
2022-09-15T05:41:33.139Z,71.61
2022-09-15T05:44:02.230Z,71.43
2022-09-15T05:46:31.428Z,71.44
2022-09-15T05:49:01.358Z,71.34
2022-09-15T05:51:30.631Z,71.58
2022-09-15T05:54:00.841Z,71.59
2022-09-15T05:56:31.558Z,71.59
2022-09-15T05:59:03.232Z,71.52
2022-09-15T06:01:33.637Z,71.68
2022-09-15T06:04:05.621Z,71.70
2022-09-15T06:06:36.280Z,71.68
2022-09-15T06:09:07.128Z,71.47
2022-09-15T06:11:36.136Z,71.66
2022-09-15T06:14:06.471Z,71.68
2022-09-15T06:16:36.644Z,71.75
2022-09-15T06:19:08.402Z,71.68
2022-09-15T06:21:38.613Z,71.60
2022-09-15T06:24:07.677Z,71.63
2022-09-15T06:26:37.177Z,71.54
2022-09-15T06:29:06.790Z,71.55
2022-09-15T06:31:40.247Z,71.43
2022-09-15T06:34:11.694Z,71.60
2022-09-15T06:36:40.730Z,71.39
2022-09-15T06:39:11.477Z,71.42
2022-09-15T06:42:01.847Z,71.45
2022-09-15T06:44:30.791Z,71.22
2022-09-15T06:47:00.310Z,70.93
2022-09-15T06:49:31.593Z,70.81
2022-09-15T06:52:02.947Z,70.81
2022-09-15T06:54:31.819Z,70.35
2022-09-15T06:57:01.546Z,70.16
2022-09-15T06:59:30.466Z,69.82
2022-09-15T07:02:06.904Z,67.00
2022-09-15T07:04:38.988Z,65.21
2022-09-15T07:07:09.412Z,64.15
2022-09-15T07:09:41.153Z,64.05
2022-09-15T07:12:10.512Z,62.14
2022-09-15T07:14:39.413Z,60.70
2022-09-15T07:17:08.579Z,60.17
2022-09-15T07:19:38.908Z,59.76
2022-09-15T07:22:08.462Z,59.06
2022-09-15T07:24:37.401Z,59.00
2022-09-15T07:27:07.142Z,58.87
2022-09-15T07:29:38.679Z,57.97
2022-09-15T07:32:08.193Z,56.63
2022-09-15T07:34:38.305Z,57.04
2022-09-15T07:37:07.822Z,56.38
2022-09-15T07:39:39.450Z,56.33
2022-09-15T07:42:08.468Z,55.88
2022-09-15T07:44:40.979Z,54.63
2022-09-15T07:47:09.935Z,53.77
2022-09-15T07:49:38.751Z,53.81
2022-09-15T07:52:07.656Z,53.80
2022-09-15T07:54:36.842Z,52.01
2022-09-15T07:57:07.106Z,52.14
2022-09-15T07:59:41.124Z,52.80
2022-09-15T08:02:17.989Z,52.52
2022-09-15T08:04:47.770Z,52.00
2022-09-15T08:07:16.776Z,51.76
2022-09-15T08:09:47.642Z,51.82
2022-09-15T08:12:17.093Z,51.51
2022-09-15T08:14:46.067Z,51.04
2022-09-15T08:17:15.463Z,50.93
2022-09-15T08:19:45.375Z,50.06
2022-09-15T08:22:14.702Z,49.76
2022-09-15T08:24:45.328Z,49.48
2022-09-15T08:27:14.483Z,49.34
2022-09-15T08:29:45.731Z,48.60
2022-09-15T08:32:16.162Z,47.95
2022-09-15T08:34:46.862Z,47.39
2022-09-15T08:37:17.145Z,47.95
2022-09-15T08:39:47.102Z,48.90
2022-09-15T08:42:18.210Z,46.51
2022-09-15T08:45:17.408Z,46.85
2022-09-15T08:47:56.418Z,46.67
2022-09-15T08:50:36.283Z,46.08
2022-09-15T08:53:18.458Z,45.39
2022-09-15T08:56:00.590Z,45.06
2022-09-15T08:58:34.956Z,44.01
2022-09-15T09:01:26.466Z,43.86
2022-09-15T09:04:17.974Z,43.67
2022-09-15T09:07:06.468Z,41.80
2022-09-15T09:09:42.051Z,40.64
2022-09-15T09:12:14.047Z,41.37
2022-09-15T09:14:55.312Z,40.61
2022-09-15T09:17:41.281Z,41.40
2022-09-15T09:20:32.504Z,40.86
2022-09-15T09:23:04.976Z,39.29
2022-09-15T09:25:34.240Z,38.30
2022-09-15T09:28:24.054Z,39.73
2022-09-15T09:30:55.639Z,39.50
2022-09-15T09:33:24.614Z,39.90
2022-09-15T09:35:54.970Z,41.07
2022-09-15T09:38:38.288Z,40.87
2022-09-15T09:41:18.492Z,39.87
2022-09-15T09:43:51.477Z,38.19
2022-09-15T09:46:20.810Z,39.20
2022-09-15T09:49:23.396Z,39.84
2022-09-15T09:51:54.091Z,39.82
2022-09-15T09:54:27.562Z,39.75
2022-09-15T09:56:57.562Z,40.05
2022-09-15T09:59:41.905Z,40.30
2022-09-15T10:02:23.144Z,41.07
2022-09-15T10:05:17.631Z,41.21
2022-09-15T10:07:47.400Z,41.49
2022-09-15T10:10:25.617Z,40.92
2022-09-15T10:12:59.953Z,40.91
2022-09-15T10:15:35.122Z,40.97
2022-09-15T10:18:04.465Z,40.94
2022-09-15T10:20:40.592Z,40.78
2022-09-15T10:23:21.972Z,41.21
2022-09-15T10:26:00.341Z,41.12
2022-09-15T10:28:29.898Z,41.19
2022-09-15T10:31:11.447Z,41.41
2022-09-15T10:33:42.920Z,41.49
2022-09-15T10:36:24.495Z,41.73
2022-09-15T10:39:17.643Z,41.71
2022-09-15T10:41:59.827Z,41.64
2022-09-15T10:44:58.236Z,41.58
2022-09-15T10:47:51.061Z,41.72
2022-09-15T10:50:55.594Z,41.34
2022-09-15T10:53:42.984Z,40.66
2022-09-15T10:56:23.877Z,40.84
2022-09-15T10:59:03.763Z,40.39
2022-09-15T11:02:09.407Z,40.19
2022-09-15T11:04:44.798Z,40.60
2022-09-15T11:07:37.138Z,40.36
2022-09-15T11:10:56.786Z,40.10
2022-09-15T11:14:10.802Z,40.12
2022-09-15T11:17:05.147Z,40.31
2022-09-15T11:20:20.066Z,40.30
2022-09-15T11:22:54.383Z,40.87
2022-09-15T11:25:28.772Z,41.29
2022-09-15T11:27:57.838Z,41.37
2022-09-15T11:30:42.494Z,41.53
2022-09-15T11:33:27.028Z,41.52
2022-09-15T11:36:35.319Z,41.67
2022-09-15T11:39:08.858Z,41.67
2022-09-15T11:41:46.446Z,41.76
2022-09-15T11:44:32.086Z,41.76
2022-09-15T11:47:02.059Z,41.51
2022-09-15T11:49:30.619Z,41.84
2022-09-15T11:52:13.033Z,41.85
2022-09-15T11:54:52.730Z,41.86
2022-09-15T11:57:28.911Z,42.13
2022-09-15T12:00:12.759Z,42.48
2022-09-15T12:02:52.436Z,42.60
2022-09-15T12:05:30.800Z,42.75
2022-09-15T12:08:06.433Z,42.87
2022-09-15T12:10:42.369Z,43.00
2022-09-15T12:13:20.283Z,43.32
2022-09-15T12:15:52.431Z,43.41
2022-09-15T12:18:41.722Z,43.59
2022-09-15T12:21:23.345Z,43.77
2022-09-15T12:24:13.433Z,43.76
2022-09-15T12:26:46.958Z,43.97
2022-09-15T12:29:52.683Z,43.68
2022-09-15T12:32:29.220Z,43.80
2022-09-15T12:35:31.807Z,43.88
2022-09-15T12:38:01.378Z,43.90
2022-09-15T12:40:30.626Z,44.05
2022-09-15T12:43:07.301Z,44.14
2022-09-15T12:45:39.556Z,44.33
2022-09-15T12:48:14.518Z,44.26
2022-09-15T12:50:53.782Z,44.17
2022-09-15T12:53:27.283Z,44.12
2022-09-15T12:56:08.362Z,44.12
2022-09-15T12:58:49.696Z,44.13
2022-09-15T13:01:27.449Z,43.70
2022-09-15T13:03:59.298Z,43.60
2022-09-15T13:06:35.546Z,43.70
2022-09-15T13:09:06.429Z,43.77
2022-09-15T13:11:38.701Z,43.99
2022-09-15T13:14:36.132Z,44.14
2022-09-15T13:17:17.880Z,44.15
2022-09-15T13:19:49.620Z,44.33
2022-09-15T13:22:40.366Z,44.40
2022-09-15T13:25:18.759Z,44.51
2022-09-15T13:27:56.685Z,44.47
2022-09-15T13:30:34.255Z,44.62
2022-09-15T13:33:14.355Z,44.93
2022-09-15T13:35:52.956Z,45.13
2022-09-15T13:38:37.489Z,45.40
2022-09-15T13:41:24.667Z,45.65
2022-09-15T13:44:20.973Z,45.78
2022-09-15T13:47:09.158Z,45.91
2022-09-15T13:49:50.742Z,46.06
2022-09-15T13:52:25.591Z,45.97
2022-09-15T13:55:26.615Z,45.98
2022-09-15T14:00:59.479Z,46.22
2022-09-15T14:03:42.564Z,46.27
2022-09-15T14:06:19.935Z,46.19
2022-09-15T14:09:42.848Z,45.91
2022-09-15T14:12:15.615Z,45.78
2022-09-15T14:14:55.145Z,45.59
2022-09-15T14:17:29.815Z,45.75
2022-09-15T14:20:01.154Z,45.72
2022-09-15T14:22:34.420Z,45.80
2022-09-15T14:25:10.103Z,45.74
2022-09-15T14:27:46.015Z,45.76
2022-09-15T14:30:28.050Z,45.90
2022-09-15T14:33:03.084Z,45.91
2022-09-15T14:35:41.233Z,46.02
2022-09-15T14:38:23.066Z,46.06
2022-09-15T14:40:55.018Z,46.24
2022-09-15T14:43:31.363Z,46.37
2022-09-15T14:46:21.590Z,46.35
2022-09-15T14:48:50.490Z,46.17
2022-09-15T14:51:25.934Z,46.23
2022-09-15T14:54:00.290Z,46.39
2022-09-15T14:56:35.595Z,46.44
2022-09-15T14:59:12.819Z,46.48
2022-09-15T15:01:48.652Z,46.45
2022-09-15T15:04:30.023Z,46.42
2022-09-15T15:07:11.798Z,46.21
2022-09-15T15:10:16.335Z,46.21
2022-09-15T15:12:50.933Z,45.91
2022-09-15T15:15:21.171Z,45.69
2022-09-15T15:17:54.983Z,45.71
2022-09-15T15:20:30.741Z,45.79
2022-09-15T15:23:16.414Z,45.83
2022-09-15T15:25:47.431Z,45.97
2022-09-15T15:28:43.356Z,46.15
2022-09-15T15:31:18.240Z,46.37
2022-09-15T15:33:59.858Z,46.47
2022-09-15T15:36:31.799Z,46.61
2022-09-15T15:39:04.721Z,46.69
2022-09-15T15:41:41.503Z,46.76
2022-09-15T15:44:18.149Z,46.93
2022-09-15T15:47:23.498Z,46.78
2022-09-15T15:50:12.710Z,46.85
2022-09-15T15:52:45.338Z,46.81
2022-09-15T15:55:23.517Z,46.83
2022-09-15T15:57:55.022Z,46.85
2022-09-15T16:00:30.759Z,46.76
2022-09-15T16:03:03.127Z,46.90
2022-09-15T16:05:33.585Z,46.93
2022-09-15T16:08:31.709Z,46.87
2022-09-15T16:11:02.874Z,46.90
2022-09-15T16:13:31.758Z,46.97
2022-09-15T16:16:02.734Z,47.14
2022-09-15T16:18:31.716Z,47.28
2022-09-15T16:21:02.690Z,47.46
2022-09-15T16:23:32.508Z,47.58
2022-09-15T16:26:05.970Z,47.70
2022-09-15T16:28:35.735Z,47.76
2022-09-15T16:31:05.034Z,47.91
2022-09-15T16:33:39.955Z,47.97
2022-09-15T16:36:14.693Z,48.00
2022-09-15T16:38:45.844Z,48.13
2022-09-15T16:41:18.063Z,48.18
2022-09-15T16:43:47.902Z,48.30
2022-09-15T16:46:21.223Z,48.36
2022-09-15T16:48:50.724Z,48.42
2022-09-15T16:51:28.742Z,48.55
2022-09-15T16:53:59.858Z,48.56
2022-09-15T16:56:32.084Z,48.62
2022-09-15T16:59:01.264Z,48.64
2022-09-15T17:01:32.386Z,48.85
2022-09-15T17:04:02.475Z,49.04
2022-09-15T17:06:32.003Z,48.92
2022-09-15T17:09:04.848Z,49.29
2022-09-15T17:11:35.712Z,49.33
2022-09-15T17:14:05.878Z,49.30
2022-09-15T17:16:40.296Z,49.35
2022-09-15T17:19:16.936Z,49.43
2022-09-15T17:21:47.058Z,49.60
2022-09-15T17:24:18.074Z,49.54
2022-09-15T17:26:48.067Z,49.67
2022-09-15T17:29:18.419Z,49.69
2022-09-15T17:31:48.569Z,49.74
2022-09-15T17:34:18.450Z,49.75
2022-09-15T17:36:48.735Z,49.95
2022-09-15T17:39:21.605Z,50.07
2022-09-15T17:41:51.719Z,50.08
2022-09-15T17:44:22.255Z,50.23
2022-09-15T17:46:51.343Z,50.37
2022-09-15T17:49:20.612Z,50.60
2022-09-15T17:51:50.499Z,50.52
2022-09-15T17:54:20.423Z,50.61
2022-09-15T17:56:50.666Z,50.60
2022-09-15T17:59:19.708Z,50.80
2022-09-15T18:01:48.916Z,50.72
2022-09-15T18:04:19.921Z,50.66
2022-09-15T18:06:53.141Z,50.80
2022-09-15T18:09:24.278Z,50.80
2022-09-15T18:11:55.149Z,50.92
2022-09-15T18:14:25.036Z,50.94
2022-09-15T18:16:56.593Z,50.95
2022-09-15T18:19:26.045Z,51.11
2022-09-15T18:21:56.612Z,50.96
2022-09-15T18:24:26.471Z,51.08
2022-09-15T18:26:56.810Z,51.09
2022-09-15T18:29:27.412Z,51.39
2022-09-15T18:32:00.546Z,51.45
2022-09-15T18:34:31.427Z,51.66
2022-09-15T18:37:02.993Z,51.54
2022-09-15T18:39:32.781Z,51.54
2022-09-15T18:42:04.328Z,51.35
2022-09-15T18:44:33.538Z,51.46
2022-09-15T18:47:03.552Z,51.55
2022-09-15T18:49:33.822Z,51.51
2022-09-15T18:52:03.635Z,51.48
2022-09-15T18:54:35.286Z,51.66
2022-09-15T18:57:06.481Z,51.60
2022-09-15T18:59:36.385Z,51.66
2022-09-15T19:02:08.309Z,51.59
2022-09-15T19:04:40.710Z,51.85
2022-09-15T19:07:12.607Z,51.96
2022-09-15T19:10:33.330Z,51.85
2022-09-15T19:13:04.523Z,52.03
2022-09-15T19:15:34.903Z,52.10
2022-09-15T19:18:04.361Z,52.01
2022-09-15T19:20:34.334Z,51.96
2022-09-15T19:23:05.828Z,52.40
2022-09-15T19:25:39.543Z,52.41
2022-09-15T19:28:11.356Z,52.49
2022-09-15T19:30:41.734Z,52.76
2022-09-15T19:33:12.789Z,52.66
2022-09-15T19:35:44.031Z,52.90
2022-09-15T19:38:15.215Z,52.87
2022-09-15T19:40:45.118Z,53.10
2022-09-15T19:43:14.651Z,53.06
2022-09-15T19:45:43.857Z,53.20
2022-09-15T19:48:15.153Z,53.32
2022-09-15T19:50:45.418Z,53.24
2022-09-15T19:53:17.746Z,53.31
2022-09-15T19:55:52.196Z,53.40
2022-09-15T19:58:21.508Z,53.22
2022-09-15T20:00:55.220Z,53.26
2022-09-15T20:03:30.078Z,53.32
2022-09-15T20:06:02.399Z,53.59
2022-09-15T20:08:36.020Z,53.62
2022-09-15T20:11:10.304Z,53.67
2022-09-15T20:13:43.661Z,53.94
2022-09-15T20:16:18.530Z,54.03
2022-09-15T20:18:50.025Z,53.98
2022-09-15T20:21:39.108Z,54.19
2022-09-15T20:24:12.228Z,54.16
2022-09-15T20:26:42.984Z,54.24
2022-09-15T20:29:12.939Z,54.26
2022-09-15T20:34:30.496Z,54.51
2022-09-15T20:36:59.366Z,54.63
2022-09-15T20:39:28.658Z,54.69
2022-09-15T20:41:59.217Z,54.72
2022-09-15T20:44:28.175Z,54.80
2022-09-15T20:46:58.491Z,54.95
2022-09-15T20:49:27.428Z,54.97
2022-09-15T20:51:56.460Z,55.17
2022-09-15T20:54:25.881Z,55.03
2022-09-15T20:56:57.797Z,55.20
2022-09-15T20:59:26.888Z,55.21
2022-09-15T21:01:56.182Z,55.21
2022-09-15T21:04:28.211Z,55.12
2022-09-15T21:06:57.357Z,55.15
2022-09-15T21:09:54.607Z,55.25
2022-09-15T21:12:25.272Z,55.60
2022-09-15T21:14:57.138Z,55.54
2022-09-15T21:17:25.988Z,55.47
2022-09-15T21:19:55.471Z,55.50
2022-09-15T21:22:26.307Z,55.77
2022-09-15T21:24:56.867Z,55.38
2022-09-15T21:27:29.199Z,55.69
2022-09-15T21:29:58.802Z,55.73
2022-09-15T21:32:29.827Z,55.69
2022-09-15T21:35:00.436Z,55.88
2022-09-15T21:37:29.275Z,56.01
2022-09-15T21:39:59.965Z,55.98
2022-09-15T21:42:31.786Z,55.84
2022-09-15T21:45:02.653Z,55.98
2022-09-15T21:47:34.464Z,56.03
2022-09-15T21:50:08.371Z,56.19
2022-09-15T21:52:39.510Z,56.32
2022-09-15T21:55:09.498Z,56.36
2022-09-15T21:57:38.306Z,56.14
2022-09-15T22:00:08.589Z,56.28
2022-09-15T22:02:37.797Z,56.34
2022-09-15T22:05:07.755Z,56.33
2022-09-15T22:07:37.948Z,56.58
2022-09-15T22:10:34.987Z,56.72
2022-09-15T22:13:06.226Z,56.94
2022-09-15T22:15:36.185Z,57.19
2022-09-15T22:18:07.226Z,57.35
2022-09-15T22:20:36.376Z,57.49
2022-09-15T22:23:05.658Z,57.46
2022-09-15T22:25:36.961Z,57.52
2022-09-15T22:28:07.079Z,57.52
2022-09-15T22:30:38.655Z,57.53
2022-09-15T22:33:09.934Z,57.45
2022-09-15T22:35:39.578Z,57.53
2022-09-15T22:38:08.418Z,57.65
2022-09-15T22:40:37.441Z,57.64
2022-09-15T22:43:07.191Z,57.85
2022-09-15T22:45:37.981Z,57.91
2022-09-15T22:48:08.563Z,58.15
2022-09-15T22:50:37.525Z,58.00
2022-09-15T22:53:06.845Z,58.04
2022-09-15T22:55:36.934Z,58.13
2022-09-15T22:58:06.065Z,58.22
2022-09-15T23:00:40.291Z,58.09
2022-09-15T23:03:11.185Z,58.34
2022-09-15T23:05:41.165Z,58.35
2022-09-15T23:08:10.133Z,58.39
2022-09-15T23:10:39.133Z,58.64
2022-09-15T23:13:08.464Z,58.69
2022-09-15T23:15:37.435Z,58.54
2022-09-15T23:18:06.175Z,58.88
2022-09-15T23:20:35.504Z,58.94
2022-09-15T23:23:05.272Z,59.00
2022-09-15T23:25:36.865Z,58.86
2022-09-15T23:28:06.169Z,59.18
2022-09-15T23:30:35.146Z,59.26
2022-09-15T23:33:03.976Z,59.36
2022-09-15T23:35:36.955Z,59.27
2022-09-15T23:38:05.772Z,59.26
2022-09-15T23:40:35.099Z,59.32
2022-09-15T23:43:04.847Z,59.40
2022-09-15T23:45:33.954Z,59.35
2022-09-15T23:48:05.041Z,59.36
2022-09-15T23:50:35.982Z,59.45
2022-09-15T23:53:06.511Z,59.56
2022-09-15T23:55:36.678Z,59.50
2022-09-15T23:58:06.134Z,59.68
